createdAt,value
2022-09-26T00:02:48.654Z,4.18
2022-09-26T00:07:50.012Z,3.83
2022-09-26T00:12:51.385Z,3.58
2022-09-26T00:17:52.762Z,3.83
2022-09-26T00:22:54.119Z,4.18
2022-09-26T00:27:55.453Z,4.15
2022-09-26T00:32:56.780Z,3.72
2022-09-26T00:37:58.114Z,3.95
2022-09-26T00:42:59.524Z,4.53
2022-09-26T00:48:05.550Z,4.97
2022-09-26T00:53:12.879Z,4.38
2022-09-26T00:58:45.949Z,4.43
2022-09-26T01:03:49.554Z,4.18
2022-09-26T01:08:59.500Z,4.22
2022-09-26T01:14:00.890Z,4.78
2022-09-26T01:19:06.824Z,3.67
2022-09-26T01:24:38.170Z,3.80
2022-09-26T01:30:17.969Z,4.97
2022-09-26T01:35:38.131Z,4.70
2022-09-26T01:40:45.276Z,4.70
2022-09-26T01:46:12.738Z,4.95
2022-09-26T01:51:16.817Z,5.00
2022-09-26T01:56:22.935Z,4.57
2022-09-26T02:01:29.391Z,4.75
2022-09-26T02:06:54.659Z,4.97
2022-09-26T02:12:00.893Z,5.85
2022-09-26T02:17:10.246Z,5.35
2022-09-26T02:22:11.802Z,4.57
2022-09-26T02:27:13.931Z,4.72
2022-09-26T02:32:19.187Z,4.50
2022-09-26T02:37:21.543Z,4.40
2022-09-26T02:42:53.467Z,4.40
2022-09-26T02:48:40.268Z,4.53
2022-09-26T02:54:26.197Z,5.53
2022-09-26T03:00:09.161Z,5.03
2022-09-26T03:05:18.997Z,5.15
2022-09-26T03:10:20.798Z,5.80
2022-09-26T03:15:23.303Z,5.95
2022-09-26T03:20:25.393Z,5.78
2022-09-26T03:25:27.933Z,5.15
2022-09-26T03:30:30.150Z,5.97
2022-09-26T03:35:31.479Z,4.82
2022-09-26T03:40:32.857Z,5.13
2022-09-26T03:50:37.685Z,4.70
2022-09-26T03:55:39.152Z,4.30
2022-09-26T04:05:43.309Z,4.60
2022-09-26T04:10:44.613Z,6.03
2022-09-26T04:15:45.969Z,4.68
2022-09-26T04:20:47.288Z,4.85
2022-09-26T04:25:48.603Z,4.30
2022-09-26T04:30:49.958Z,4.40
2022-09-26T04:35:51.317Z,3.58
2022-09-26T04:40:52.868Z,4.00
2022-09-26T04:50:55.725Z,3.53
2022-09-26T05:01:03.934Z,3.70
2022-09-26T05:06:08.922Z,3.58
2022-09-26T05:11:10.387Z,4.30
2022-09-26T05:21:14.672Z,4.00
2022-09-26T05:26:21.097Z,3.70
2022-09-26T05:31:28.817Z,4.05
2022-09-26T05:36:30.684Z,3.80
2022-09-26T05:41:33.569Z,3.70
2022-09-26T05:46:36.050Z,3.70
2022-09-26T05:51:41.200Z,3.42
2022-09-26T05:56:42.556Z,3.78
2022-09-26T06:01:44.143Z,3.53
2022-09-26T06:06:45.481Z,3.42
2022-09-26T06:11:47.036Z,2.85
2022-09-26T06:16:48.384Z,3.78
2022-09-26T06:26:51.051Z,3.58
2022-09-26T06:31:52.488Z,3.75
2022-09-26T06:41:55.813Z,4.10
2022-09-26T06:47:00.608Z,3.60
2022-09-26T06:52:02.431Z,4.28
2022-09-26T06:57:03.901Z,2.72
2022-09-26T07:07:07.661Z,4.13
2022-09-26T07:12:14.764Z,4.57
2022-09-26T07:17:17.551Z,5.50
2022-09-26T07:22:19.105Z,4.65
2022-09-26T07:27:20.432Z,5.03
2022-09-26T07:32:22.633Z,4.35
2022-09-26T07:37:23.984Z,3.85
2022-09-26T07:42:25.295Z,4.22
2022-09-26T07:47:45.147Z,4.22
2022-09-26T07:52:49.586Z,3.92
2022-09-26T07:57:51.008Z,4.47
2022-09-26T08:12:56.645Z,3.40
2022-09-26T08:17:57.953Z,3.83
2022-09-26T08:22:59.877Z,3.85
2022-09-26T08:28:01.474Z,3.63
2022-09-26T08:33:02.890Z,2.83
2022-09-26T08:43:18.968Z,3.97
2022-09-26T08:48:39.297Z,2.92
2022-09-26T08:53:52.215Z,2.90
2022-09-26T08:58:56.256Z,2.35
2022-09-26T09:04:13.067Z,2.50
2022-09-26T09:09:16.694Z,2.50
2022-09-26T09:14:35.097Z,2.30
2022-09-26T09:19:42.463Z,2.05
2022-09-26T09:24:59.564Z,2.25
2022-09-26T09:30:16.471Z,3.00
2022-09-26T09:35:23.648Z,2.17
2022-09-26T09:40:33.908Z,1.98
2022-09-26T09:45:35.596Z,2.60
2022-09-26T09:50:48.542Z,2.83
2022-09-26T09:55:49.968Z,3.33
2022-09-26T10:06:01.809Z,3.00
2022-09-26T10:11:12.273Z,2.70
2022-09-26T10:16:15.174Z,3.00
2022-09-26T10:21:18.852Z,3.17
2022-09-26T10:26:30.495Z,3.03
2022-09-26T10:31:41.996Z,2.90
2022-09-26T10:36:44.108Z,2.60
2022-09-26T10:46:51.327Z,2.58
2022-09-26T10:52:08.208Z,3.25
2022-09-26T10:57:19.496Z,2.92
2022-09-26T11:02:24.089Z,2.50
2022-09-26T11:07:29.064Z,2.72
2022-09-26T11:12:35.221Z,3.08
2022-09-26T11:17:48.072Z,2.58
2022-09-26T11:23:01.971Z,2.70
2022-09-26T11:28:12.548Z,2.65
2022-09-26T11:33:14.913Z,2.67
2022-09-26T11:38:24.991Z,2.40
2022-09-26T11:43:39.244Z,2.28
2022-09-26T11:49:15.928Z,2.50
2022-09-26T11:54:42.000Z,2.22
2022-09-26T11:59:55.182Z,1.92
2022-09-26T12:05:27.645Z,2.10
2022-09-26T12:10:42.254Z,2.00
2022-09-26T12:15:43.865Z,2.10
2022-09-26T12:21:04.588Z,2.10
2022-09-26T12:26:23.683Z,1.60
2022-09-26T12:32:04.167Z,2.10
2022-09-26T12:37:18.926Z,2.45
2022-09-26T12:42:32.365Z,2.50
2022-09-26T12:47:52.485Z,2.88
2022-09-26T12:53:19.213Z,2.72
2022-09-26T12:58:55.257Z,2.90
2022-09-26T13:04:17.692Z,2.70
2022-09-26T13:09:36.604Z,2.65
2022-09-26T13:15:12.471Z,3.03
2022-09-26T13:20:27.664Z,2.95
2022-09-26T13:25:49.733Z,2.70
2022-09-26T13:30:57.921Z,3.00
2022-09-26T13:36:02.623Z,3.30
2022-09-26T13:41:25.258Z,3.08
2022-09-26T13:47:12.988Z,3.38
2022-09-26T13:52:26.600Z,2.70
2022-09-26T13:57:32.107Z,3.00
2022-09-26T14:02:33.603Z,2.97
2022-09-26T14:07:56.319Z,3.03
2022-09-26T14:13:03.375Z,3.20
2022-09-26T14:18:42.249Z,3.20
2022-09-26T14:23:47.132Z,3.40
2022-09-26T14:28:56.464Z,3.22
2022-09-26T14:34:17.165Z,3.33
2022-09-26T14:39:31.957Z,3.87
2022-09-26T14:44:37.210Z,3.53
2022-09-26T14:49:39.585Z,3.58
2022-09-26T14:54:41.466Z,3.53
2022-09-26T14:59:43.322Z,3.90
2022-09-26T15:04:50.256Z,3.95
2022-09-26T15:09:58.881Z,4.68
2022-09-26T15:15:13.071Z,3.50
2022-09-26T15:20:18.268Z,4.03
2022-09-26T15:25:32.158Z,3.60
2022-09-26T15:30:37.345Z,3.65
2022-09-26T15:35:39.319Z,3.50
2022-09-26T15:40:40.787Z,4.30
2022-09-26T15:45:46.135Z,3.72
2022-09-26T15:50:49.338Z,3.03
2022-09-26T15:56:05.192Z,4.32
2022-09-26T16:01:08.502Z,3.53
2022-09-26T16:06:24.829Z,4.22
2022-09-26T16:11:27.255Z,4.53
2022-09-26T16:16:32.699Z,5.30
2022-09-26T16:21:36.355Z,4.60
2022-09-26T16:26:37.685Z,4.70
2022-09-26T16:31:46.797Z,4.70
2022-09-26T16:36:49.955Z,4.43
2022-09-26T16:42:02.687Z,4.65
2022-09-26T16:47:43.795Z,4.47
2022-09-26T16:52:45.863Z,4.40
2022-09-26T16:57:56.581Z,4.55
2022-09-26T17:02:58.066Z,5.50
2022-09-26T17:13:02.628Z,5.70
2022-09-26T17:18:08.781Z,5.07
2022-09-26T17:23:38.280Z,5.40
2022-09-26T17:28:39.968Z,5.30
2022-09-26T17:33:42.472Z,4.85
2022-09-26T17:38:43.849Z,5.03
2022-09-26T17:48:47.123Z,4.40
2022-09-26T17:53:52.095Z,4.68
2022-09-26T17:58:54.110Z,5.40
2022-09-26T18:04:00.804Z,5.18
2022-09-26T18:09:09.867Z,5.22
2022-09-26T18:14:15.462Z,4.88
2022-09-26T18:19:17.263Z,4.60
2022-09-26T18:24:20.106Z,4.18
2022-09-26T18:29:30.096Z,3.05
2022-09-26T18:34:31.903Z,3.13
2022-09-26T18:39:33.449Z,2.45
2022-09-26T18:44:35.362Z,2.90
2022-09-26T18:49:37.710Z,2.35
2022-09-26T18:54:41.321Z,2.33
2022-09-26T18:59:45.289Z,2.50
2022-09-26T19:04:46.771Z,2.70
2022-09-26T19:14:50.327Z,2.70
2022-09-26T19:19:51.677Z,2.85
2022-09-26T19:24:56.963Z,2.83
2022-09-26T19:30:07.951Z,2.70
2022-09-26T19:35:26.421Z,2.67
2022-09-26T19:40:28.208Z,2.70
2022-09-26T19:45:32.326Z,3.60
2022-09-26T19:50:35.450Z,3.60
2022-09-26T19:55:36.968Z,3.47
2022-09-26T20:00:41.533Z,3.40
2022-09-26T20:05:43.756Z,5.60
2022-09-26T20:10:46.255Z,7.00
2022-09-26T20:15:48.461Z,3.88
2022-09-26T20:20:56.279Z,4.05
2022-09-26T20:25:57.712Z,4.10
2022-09-26T20:36:04.228Z,4.60
2022-09-26T20:41:13.235Z,4.20
2022-09-26T20:46:15.298Z,3.33
2022-09-26T20:51:23.890Z,4.13
2022-09-26T20:56:25.505Z,4.10
2022-09-26T21:01:28.669Z,4.93
2022-09-26T21:06:34.898Z,6.60
2022-09-26T21:11:36.415Z,6.68
2022-09-26T21:16:45.378Z,7.05
2022-09-26T21:22:23.630Z,8.55
2022-09-26T21:27:25.156Z,5.28
2022-09-26T21:32:26.460Z,8.23
2022-09-26T21:37:27.932Z,8.50
2022-09-26T21:47:31.403Z,7.32
2022-09-26T21:52:54.962Z,6.97
2022-09-26T21:58:02.331Z,6.10
2022-09-26T22:03:03.763Z,6.43
2022-09-26T22:13:06.435Z,6.70
2022-09-26T22:18:07.952Z,5.35
2022-09-26T22:28:10.630Z,4.53
2022-09-26T22:38:13.313Z,4.22
2022-09-26T22:48:16.428Z,3.47
2022-09-26T22:53:18.917Z,3.40
2022-09-26T23:08:23.544Z,1.55
2022-09-26T23:13:26.724Z,1.85
2022-09-26T23:18:28.115Z,1.73
2022-09-26T23:23:29.485Z,1.00
2022-09-26T23:28:32.195Z,1.70
2022-09-26T23:33:33.990Z,1.65
2022-09-26T23:38:37.532Z,1.90
2022-09-26T23:43:39.571Z,1.63
2022-09-26T23:48:41.629Z,1.70
2022-09-26T23:53:43.044Z,1.10
